createdAt,value
2024-04-18T00:00:34.957Z,1010.73
2024-04-18T00:01:34.898Z,1010.77
2024-04-18T00:02:34.827Z,1010.76
2024-04-18T00:03:34.905Z,1010.75
2024-04-18T00:04:34.957Z,1010.77
2024-04-18T00:05:34.805Z,1010.77
2024-04-18T00:06:34.789Z,1010.78
2024-04-18T00:07:34.758Z,1010.78
2024-04-18T00:08:34.745Z,1010.78
2024-04-18T00:09:34.797Z,1010.73
2024-04-18T00:10:34.722Z,1010.78
2024-04-18T00:11:34.708Z,1010.76
2024-04-18T00:12:34.736Z,1010.75
2024-04-18T00:13:34.700Z,1010.76
2024-04-18T00:14:34.699Z,1010.76
2024-04-18T00:15:34.700Z,1010.76
2024-04-18T00:16:34.650Z,1010.78
2024-04-18T00:17:34.726Z,1010.74
2024-04-18T00:18:34.723Z,1010.80
2024-04-18T00:19:34.628Z,1010.82
2024-04-18T00:20:34.620Z,1010.79
2024-04-18T00:21:34.654Z,1010.82
2024-04-18T00:22:34.613Z,1010.84
2024-04-18T00:23:34.590Z,1010.85
2024-04-18T00:24:34.574Z,1010.86
2024-04-18T00:25:34.511Z,1010.86
2024-04-18T00:26:34.528Z,1010.88
2024-04-18T00:27:34.552Z,1010.86
2024-04-18T00:28:34.491Z,1010.85
2024-04-18T00:29:34.473Z,1010.87
2024-04-18T00:30:34.521Z,1010.86
2024-04-18T00:31:34.442Z,1010.85
2024-04-18T00:32:34.504Z,1010.85
2024-04-18T00:33:34.440Z,1010.85
2024-04-18T00:34:34.467Z,1010.88
2024-04-18T00:35:34.373Z,1010.92
2024-04-18T00:36:34.461Z,1010.90
2024-04-18T00:37:34.378Z,1010.88
2024-04-18T00:38:34.372Z,1010.92
2024-04-18T00:39:34.384Z,1010.91
2024-04-18T00:40:34.329Z,1010.92
2024-04-18T00:41:34.326Z,1010.93
2024-04-18T00:42:34.306Z,1010.92
2024-04-18T00:43:34.293Z,1010.90
2024-04-18T00:44:34.277Z,1010.92
2024-04-18T00:45:34.337Z,1010.92
2024-04-18T00:46:34.267Z,1010.91
2024-04-18T00:47:34.290Z,1010.89
2024-04-18T00:48:34.271Z,1010.93
2024-04-18T00:49:34.226Z,1010.90
2024-04-18T00:50:34.218Z,1010.92
2024-04-18T00:51:34.239Z,1010.91
2024-04-18T00:52:34.170Z,1010.94
2024-04-18T00:53:34.167Z,1010.88
2024-04-18T00:54:34.180Z,1010.96
2024-04-18T00:55:34.145Z,1010.94
2024-04-18T00:56:34.131Z,1010.96
2024-04-18T00:57:34.155Z,1011.00
2024-04-18T00:58:34.085Z,1011.01
2024-04-18T00:59:34.076Z,1010.98
2024-04-18T01:00:34.180Z,1010.98
2024-04-18T01:01:34.070Z,1010.95
2024-04-18T01:02:34.036Z,1010.97
2024-04-18T01:03:34.151Z,1011.00
2024-04-18T01:04:34.150Z,1011.01
2024-04-18T01:05:34.029Z,1011.02
2024-04-18T01:06:34.001Z,1011.02
2024-04-18T01:07:33.981Z,1011.09
2024-04-18T01:08:33.964Z,1011.05
2024-04-18T01:09:33.990Z,1011.01
2024-04-18T01:10:33.938Z,1011.02
2024-04-18T01:11:34.138Z,1011.06
2024-04-18T01:12:33.936Z,1011.08
2024-04-18T01:13:33.888Z,1011.11
2024-04-18T01:14:33.902Z,1011.08
2024-04-18T01:15:33.938Z,1011.12
2024-04-18T01:16:33.850Z,1011.12
2024-04-18T01:17:33.952Z,1011.09
2024-04-18T01:18:33.874Z,1011.11
2024-04-18T01:19:33.830Z,1011.11
2024-04-18T01:20:33.808Z,1011.19
2024-04-18T01:21:33.825Z,1011.10
2024-04-18T01:22:33.776Z,1011.16
2024-04-18T01:23:33.776Z,1011.16
2024-04-18T01:24:34.085Z,1011.17
2024-04-18T01:25:33.738Z,1011.17
2024-04-18T01:26:33.751Z,1011.20
2024-04-18T01:27:33.735Z,1011.19
2024-04-18T01:28:33.719Z,1011.17
2024-04-18T01:29:33.676Z,1011.17
2024-04-18T01:30:33.687Z,1011.18
2024-04-18T01:31:33.650Z,1011.19
2024-04-18T01:32:33.720Z,1011.24
2024-04-18T01:33:33.926Z,1011.26
2024-04-18T01:34:33.743Z,1011.27
2024-04-18T01:35:33.612Z,1011.26
2024-04-18T01:36:33.631Z,1011.25
2024-04-18T01:37:33.588Z,1011.23
2024-04-18T01:38:33.559Z,1011.26
2024-04-18T01:39:33.553Z,1011.28
2024-04-18T01:40:34.883Z,1011.31
2024-04-18T01:41:33.514Z,1011.32
2024-04-18T01:42:33.555Z,1011.34
2024-04-18T01:43:33.490Z,1011.29
2024-04-18T01:44:33.480Z,1011.38
2024-04-18T01:45:33.522Z,1011.35
2024-04-18T01:46:33.480Z,1011.35
2024-04-18T01:47:33.607Z,1011.40
2024-04-18T01:48:33.563Z,1011.38
2024-04-18T01:49:33.407Z,1011.38
2024-04-18T01:50:33.402Z,1011.39
2024-04-18T01:51:33.445Z,1011.43
2024-04-18T01:52:33.375Z,1011.47
2024-04-18T01:53:33.372Z,1011.45
2024-04-18T01:54:33.435Z,1011.44
2024-04-18T01:55:33.332Z,1011.45
2024-04-18T01:56:33.352Z,1011.46
2024-04-18T01:57:33.323Z,1011.49
2024-04-18T01:58:33.306Z,1011.47
2024-04-18T01:59:33.290Z,1011.46
2024-04-18T02:00:33.413Z,1011.50
2024-04-18T02:01:33.354Z,1011.46
2024-04-18T02:02:33.235Z,1011.52
2024-04-18T02:03:33.292Z,1011.49
2024-04-18T02:04:33.265Z,1011.48
2024-04-18T02:05:33.250Z,1011.54
2024-04-18T02:06:33.233Z,1011.49
2024-04-18T02:07:33.176Z,1011.48
2024-04-18T02:08:33.170Z,1011.53
2024-04-18T02:09:33.210Z,1011.52
2024-04-18T02:10:33.164Z,1011.52
2024-04-18T02:11:33.128Z,1011.50
2024-04-18T02:12:33.199Z,1011.49
2024-04-18T02:13:33.104Z,1011.52
2024-04-18T02:14:33.110Z,1011.54
2024-04-18T02:15:33.146Z,1011.51
2024-04-18T02:16:33.082Z,1011.53
2024-04-18T02:17:33.124Z,1011.54
2024-04-18T02:18:33.106Z,1011.55
2024-04-18T02:19:33.064Z,1011.59
2024-04-18T02:20:33.025Z,1011.59
2024-04-18T02:21:33.078Z,1011.60
2024-04-18T02:22:32.998Z,1011.62
2024-04-18T02:23:32.978Z,1011.64
2024-04-18T02:24:33.002Z,1011.60
2024-04-18T02:25:32.946Z,1011.63
2024-04-18T02:26:32.943Z,1011.67
2024-04-18T02:27:32.910Z,1011.67
2024-04-18T02:28:32.931Z,1011.67
2024-04-18T02:29:32.909Z,1011.68
2024-04-18T02:30:33.000Z,1011.68
2024-04-18T02:31:32.863Z,1011.70
2024-04-18T02:32:32.912Z,1011.72
2024-04-18T02:33:32.953Z,1011.66
2024-04-18T02:34:32.841Z,1011.68
2024-04-18T02:35:32.806Z,1011.67
2024-04-18T02:36:32.835Z,1011.69
2024-04-18T02:37:32.815Z,1011.61
2024-04-18T02:38:32.817Z,1011.64
2024-04-18T02:39:32.776Z,1011.62
2024-04-18T02:40:32.754Z,1011.66
2024-04-18T02:41:32.736Z,1011.62
2024-04-18T02:42:32.800Z,1011.66
2024-04-18T02:43:32.701Z,1011.62
2024-04-18T02:44:32.700Z,1011.57
2024-04-18T02:45:32.780Z,1011.59
2024-04-18T02:46:32.674Z,1011.61
2024-04-18T02:47:32.880Z,1011.61
2024-04-18T02:48:32.677Z,1011.59
2024-04-18T02:49:32.627Z,1011.63
2024-04-18T02:50:32.616Z,1011.63
2024-04-18T02:51:32.663Z,1011.65
2024-04-18T02:52:32.613Z,1011.67
2024-04-18T02:53:32.569Z,1011.68
2024-04-18T02:54:32.681Z,1011.75
2024-04-18T02:55:32.539Z,1011.73
2024-04-18T02:56:32.560Z,1011.76
2024-04-18T02:57:32.586Z,1011.79
2024-04-18T02:58:32.521Z,1011.80
2024-04-18T02:59:32.506Z,1011.84
2024-04-18T03:00:32.651Z,1011.84
2024-04-18T03:01:32.513Z,1011.88
2024-04-18T03:02:32.516Z,1011.90
2024-04-18T03:03:32.453Z,1011.92
2024-04-18T03:04:32.498Z,1011.95
2024-04-18T03:05:32.437Z,1011.95
2024-04-18T03:06:32.442Z,1012.00
2024-04-18T03:07:32.382Z,1012.00
2024-04-18T03:08:32.394Z,1012.06
2024-04-18T03:09:32.428Z,1012.08
2024-04-18T03:10:32.367Z,1012.06
2024-04-18T03:11:32.340Z,1012.08
2024-04-18T03:12:32.362Z,1012.06
2024-04-18T03:13:32.314Z,1012.11
2024-04-18T03:14:32.308Z,1012.10
2024-04-18T03:15:32.366Z,1012.11
2024-04-18T03:16:32.303Z,1012.11
2024-04-18T03:17:32.330Z,1012.13
2024-04-18T03:18:32.395Z,1012.17
2024-04-18T03:19:32.253Z,1012.16
2024-04-18T03:20:32.249Z,1012.14
2024-04-18T03:21:32.240Z,1012.17
2024-04-18T03:22:32.218Z,1012.13
2024-04-18T03:23:32.308Z,1012.16
2024-04-18T03:24:32.368Z,1012.16
2024-04-18T03:25:32.282Z,1012.13
2024-04-18T03:26:32.318Z,1012.15
2024-04-18T03:27:32.228Z,1012.13
2024-04-18T03:28:32.113Z,1012.20
2024-04-18T03:29:32.118Z,1012.20
2024-04-18T03:30:32.155Z,1012.19
2024-04-18T03:31:32.118Z,1012.20
2024-04-18T03:32:32.146Z,1012.20
2024-04-18T03:33:32.125Z,1012.22
2024-04-18T03:34:32.060Z,1012.23
2024-04-18T03:35:32.043Z,1012.29
2024-04-18T03:36:32.028Z,1012.28
2024-04-18T03:37:32.888Z,1012.28
2024-04-18T03:38:32.034Z,1012.32
2024-04-18T03:39:31.987Z,1012.31
2024-04-18T03:40:31.981Z,1012.32
2024-04-18T03:41:31.934Z,1012.36
2024-04-18T03:42:31.958Z,1012.36
2024-04-18T03:43:31.927Z,1012.39
2024-04-18T03:44:31.961Z,1012.36
2024-04-18T03:45:31.947Z,1012.37
2024-04-18T03:46:31.901Z,1012.37
2024-04-18T03:47:31.967Z,1012.34
2024-04-18T03:48:31.986Z,1012.35
2024-04-18T03:49:31.850Z,1012.29
2024-04-18T03:50:31.834Z,1012.27
2024-04-18T03:51:31.914Z,1012.32
2024-04-18T03:52:31.830Z,1012.35
2024-04-18T03:53:31.776Z,1012.33
2024-04-18T03:54:39.836Z,1012.37
2024-04-18T03:55:32.773Z,1012.41
2024-04-18T03:56:31.750Z,1012.49
2024-04-18T03:57:31.815Z,1012.46
2024-04-18T03:58:31.718Z,1012.48
2024-04-18T03:59:31.744Z,1012.48
2024-04-18T04:00:31.742Z,1012.46
2024-04-18T04:01:31.847Z,1012.51
2024-04-18T04:02:31.792Z,1012.51
2024-04-18T04:03:31.733Z,1012.51
2024-04-18T04:04:31.644Z,1012.52
2024-04-18T04:05:31.630Z,1012.51
2024-04-18T04:06:33.538Z,1012.52
2024-04-18T04:07:31.625Z,1012.49
2024-04-18T04:08:31.593Z,1012.48
2024-04-18T04:09:31.720Z,1012.54
2024-04-18T04:10:31.569Z,1012.59
2024-04-18T04:11:31.605Z,1012.58
2024-04-18T04:12:31.555Z,1012.57
2024-04-18T04:13:31.539Z,1012.57
2024-04-18T04:14:31.509Z,1012.65
2024-04-18T04:15:31.525Z,1012.59
2024-04-18T04:16:31.497Z,1012.58
2024-04-18T04:17:31.477Z,1012.59
2024-04-18T04:18:31.583Z,1012.59
2024-04-18T04:19:31.509Z,1012.60
2024-04-18T04:20:31.450Z,1012.60
2024-04-18T04:21:31.433Z,1012.55
2024-04-18T04:22:33.470Z,1012.67
2024-04-18T04:23:31.385Z,1012.65
2024-04-18T04:24:31.446Z,1012.65
2024-04-18T04:25:31.403Z,1012.74
2024-04-18T04:26:31.347Z,1012.74
2024-04-18T04:27:31.384Z,1012.75
2024-04-18T04:28:31.342Z,1012.71
2024-04-18T04:29:31.323Z,1012.79
2024-04-18T04:30:31.413Z,1012.80
2024-04-18T04:31:31.303Z,1012.84
2024-04-18T04:32:31.328Z,1012.88
2024-04-18T04:33:31.299Z,1012.89
2024-04-18T04:34:31.248Z,1012.94
2024-04-18T04:35:31.256Z,1012.94
2024-04-18T04:36:31.232Z,1013.00
2024-04-18T04:37:31.217Z,1013.00
2024-04-18T04:38:31.185Z,1013.01
2024-04-18T04:39:31.202Z,1013.04
2024-04-18T04:40:31.169Z,1013.09
2024-04-18T04:41:31.173Z,1013.13
2024-04-18T04:42:31.167Z,1013.14
2024-04-18T04:43:31.173Z,1013.13
2024-04-18T04:44:31.119Z,1013.13
2024-04-18T04:45:31.109Z,1013.15
2024-04-18T04:46:31.077Z,1013.17
2024-04-18T04:47:31.094Z,1013.18
2024-04-18T04:48:34.003Z,1013.19
2024-04-18T04:49:31.112Z,1013.23
2024-04-18T04:50:31.033Z,1013.22
2024-04-18T04:51:31.062Z,1013.20
2024-04-18T04:52:31.006Z,1013.20
2024-04-18T04:53:31.114Z,1013.19
2024-04-18T04:54:30.990Z,1013.20
2024-04-18T04:55:30.969Z,1013.14
2024-04-18T04:56:30.948Z,1013.15
2024-04-18T04:57:30.978Z,1013.17
2024-04-18T04:58:30.946Z,1013.19
2024-04-18T04:59:30.915Z,1013.20
2024-04-18T05:00:30.927Z,1013.18
2024-04-18T05:01:30.924Z,1013.21
2024-04-18T05:02:30.946Z,1013.22
2024-04-18T05:03:30.965Z,1013.21
2024-04-18T05:04:30.838Z,1013.24
2024-04-18T05:05:30.856Z,1013.30
2024-04-18T05:06:30.833Z,1013.35
2024-04-18T05:07:30.839Z,1013.34
2024-04-18T05:08:30.793Z,1013.39
2024-04-18T05:09:30.818Z,1013.40
2024-04-18T05:10:30.768Z,1013.46
2024-04-18T05:11:30.813Z,1013.48
2024-04-18T05:12:30.775Z,1013.46
2024-04-18T05:13:30.725Z,1013.44
2024-04-18T05:14:30.707Z,1013.49
2024-04-18T05:15:30.722Z,1013.54
2024-04-18T05:16:30.771Z,1013.52
2024-04-18T05:17:30.686Z,1013.53
2024-04-18T05:18:30.673Z,1013.59
2024-04-18T05:19:30.667Z,1013.59
2024-04-18T05:20:30.647Z,1013.61
2024-04-18T05:21:30.641Z,1013.64
2024-04-18T05:22:30.617Z,1013.62
2024-04-18T05:23:30.640Z,1013.61
2024-04-18T05:24:30.663Z,1013.65
2024-04-18T05:25:30.597Z,1013.69
2024-04-18T05:26:30.571Z,1013.70
2024-04-18T05:27:30.599Z,1013.75
2024-04-18T05:28:30.543Z,1013.69
2024-04-18T05:29:30.530Z,1013.71
2024-04-18T05:30:30.566Z,1013.72
2024-04-18T05:31:30.505Z,1013.79
2024-04-18T05:32:30.569Z,1013.81
2024-04-18T05:33:30.578Z,1013.82
2024-04-18T05:34:30.467Z,1013.83
2024-04-18T05:35:30.464Z,1013.89
2024-04-18T05:36:30.457Z,1013.91
2024-04-18T05:37:30.419Z,1013.88
2024-04-18T05:38:30.408Z,1013.92
2024-04-18T05:39:30.443Z,1013.94
2024-04-18T05:40:30.443Z,1014.00
2024-04-18T05:41:30.365Z,1014.00
2024-04-18T05:42:30.376Z,1014.02
2024-04-18T05:43:31.857Z,1014.03
2024-04-18T05:44:30.329Z,1014.00
2024-04-18T05:45:30.351Z,1014.01
2024-04-18T05:46:30.299Z,1013.97
2024-04-18T05:47:30.375Z,1014.01
2024-04-18T05:48:30.296Z,1014.04
2024-04-18T05:49:30.299Z,1014.10
2024-04-18T05:50:30.243Z,1014.13
2024-04-18T05:51:30.269Z,1014.16
2024-04-18T05:52:30.228Z,1014.12
2024-04-18T05:53:30.228Z,1014.16
2024-04-18T05:54:30.221Z,1014.19
2024-04-18T05:55:30.188Z,1014.22
2024-04-18T05:56:30.174Z,1014.21
2024-04-18T05:57:30.236Z,1014.22
2024-04-18T05:58:30.173Z,1014.18
2024-04-18T05:59:30.127Z,1014.24
2024-04-18T06:00:30.136Z,1014.29
2024-04-18T06:01:30.169Z,1014.28
2024-04-18T06:02:30.122Z,1014.31
2024-04-18T06:03:30.175Z,1014.30
2024-04-18T06:04:30.099Z,1014.29
2024-04-18T06:05:30.055Z,1014.24
2024-04-18T06:06:30.077Z,1014.29
2024-04-18T06:07:30.044Z,1014.31
2024-04-18T06:08:30.034Z,1014.26
2024-04-18T06:09:30.015Z,1014.36
2024-04-18T06:10:29.999Z,1014.35
2024-04-18T06:11:29.995Z,1014.34
2024-04-18T06:12:30.069Z,1014.35
2024-04-18T06:13:29.958Z,1014.35
2024-04-18T06:14:29.925Z,1014.40
2024-04-18T06:15:29.938Z,1014.37
2024-04-18T06:16:29.984Z,1014.40
2024-04-18T06:17:29.931Z,1014.39
2024-04-18T06:18:29.944Z,1014.42
2024-04-18T06:19:30.071Z,1014.39
2024-04-18T06:20:29.862Z,1014.39
2024-04-18T06:21:29.871Z,1014.40
2024-04-18T06:22:29.816Z,1014.45
2024-04-18T06:23:29.838Z,1014.47
2024-04-18T06:24:29.816Z,1014.49
2024-04-18T06:25:29.811Z,1014.56
2024-04-18T06:26:29.780Z,1014.53
2024-04-18T06:27:29.816Z,1014.53
2024-04-18T06:28:29.743Z,1014.48
2024-04-18T06:29:29.738Z,1014.52
2024-04-18T06:30:29.731Z,1014.54
2024-04-18T06:31:29.752Z,1014.55
2024-04-18T06:32:29.812Z,1014.57
2024-04-18T06:33:29.813Z,1014.60
2024-04-18T06:34:29.725Z,1014.59
2024-04-18T06:35:29.681Z,1014.62
2024-04-18T06:36:29.703Z,1014.65
2024-04-18T06:37:29.636Z,1014.63
2024-04-18T06:38:29.619Z,1014.72
2024-04-18T06:39:29.679Z,1014.70
2024-04-18T06:40:29.639Z,1014.70
2024-04-18T06:41:29.596Z,1014.70
2024-04-18T06:42:29.596Z,1014.76
2024-04-18T06:43:29.549Z,1014.77
2024-04-18T06:44:29.545Z,1014.79
2024-04-18T06:45:29.577Z,1014.74
2024-04-18T06:46:29.525Z,1014.75
2024-04-18T06:47:29.625Z,1014.74
2024-04-18T06:48:29.581Z,1014.75
2024-04-18T06:49:29.515Z,1014.82
2024-04-18T06:50:29.493Z,1014.81
2024-04-18T06:51:29.512Z,1014.81
2024-04-18T06:52:29.426Z,1014.81
2024-04-18T06:53:29.433Z,1014.81
2024-04-18T06:54:29.433Z,1014.87
2024-04-18T06:55:29.422Z,1014.88
2024-04-18T06:56:29.397Z,1014.81
2024-04-18T06:57:29.415Z,1014.83
2024-04-18T06:58:29.363Z,1014.86
2024-04-18T06:59:29.359Z,1014.86
2024-04-18T07:00:29.345Z,1014.88
2024-04-18T07:01:29.378Z,1014.89
2024-04-18T07:02:29.298Z,1014.97
2024-04-18T07:03:29.439Z,1014.92
2024-04-18T07:04:29.443Z,1015.00
2024-04-18T07:05:29.257Z,1014.95
2024-04-18T07:06:29.266Z,1014.96
2024-04-18T07:07:29.241Z,1014.93
2024-04-18T07:08:29.238Z,1014.92
2024-04-18T07:09:29.256Z,1014.92
2024-04-18T07:10:29.196Z,1014.91
2024-04-18T07:11:29.245Z,1014.88
2024-04-18T07:12:29.216Z,1014.89
2024-04-18T07:13:29.217Z,1014.87
2024-04-18T07:14:29.139Z,1014.89
2024-04-18T07:15:29.174Z,1014.87
2024-04-18T07:16:29.110Z,1014.88
2024-04-18T07:17:29.181Z,1014.91
2024-04-18T07:18:29.159Z,1015.00
2024-04-18T07:19:29.103Z,1014.93
2024-04-18T07:20:29.047Z,1014.96
2024-04-18T07:21:29.095Z,1014.99
2024-04-18T07:22:29.069Z,1014.97
2024-04-18T07:23:29.020Z,1014.98
2024-04-18T07:24:29.032Z,1015.02
2024-04-18T07:25:29.019Z,1015.03
2024-04-18T07:26:28.988Z,1014.99
2024-04-18T07:27:29.056Z,1015.00
2024-04-18T07:28:28.960Z,1015.08
2024-04-18T07:29:28.974Z,1015.01
2024-04-18T07:30:28.949Z,1015.04
2024-04-18T07:31:28.935Z,1015.04
2024-04-18T07:32:28.958Z,1014.99
2024-04-18T07:33:28.983Z,1015.10
2024-04-18T07:34:28.886Z,1015.03
2024-04-18T07:35:28.940Z,1015.05
2024-04-18T07:36:28.878Z,1015.05
2024-04-18T07:37:32.358Z,1015.06
2024-04-18T07:38:28.865Z,1015.05
2024-04-18T07:39:28.841Z,1015.06
2024-04-18T07:40:28.814Z,1015.11
2024-04-18T07:41:28.796Z,1015.12
2024-04-18T07:42:28.795Z,1015.13
2024-04-18T07:43:28.778Z,1015.18
2024-04-18T07:44:28.734Z,1015.15
2024-04-18T07:45:28.830Z,1015.19
2024-04-18T07:46:28.741Z,1015.17
2024-04-18T07:47:28.757Z,1015.18
2024-04-18T07:48:28.806Z,1015.19
2024-04-18T07:49:28.696Z,1015.20
2024-04-18T07:50:28.689Z,1015.22
2024-04-18T07:51:28.656Z,1015.26
2024-04-18T07:52:28.755Z,1015.25
2024-04-18T07:53:28.623Z,1015.30
2024-04-18T07:54:28.650Z,1015.28
2024-04-18T07:55:28.643Z,1015.30
2024-04-18T07:56:29.075Z,1015.30
2024-04-18T07:57:28.974Z,1015.30
2024-04-18T07:58:29.055Z,1015.30
2024-04-18T07:59:29.095Z,1015.35
2024-04-18T08:00:29.526Z,1015.38
2024-04-18T08:01:29.838Z,1015.38
2024-04-18T08:02:30.536Z,1015.39
2024-04-18T08:03:30.247Z,1015.39
2024-04-18T08:04:50.068Z,1015.37
2024-04-18T08:05:32.565Z,1015.39
2024-04-18T08:06:32.633Z,1015.42
2024-04-18T08:07:31.132Z,1015.45
2024-04-18T08:08:30.898Z,1015.44
2024-04-18T08:09:31.528Z,1015.43
2024-04-18T08:10:36.391Z,1015.42
2024-04-18T08:12:04.002Z,1015.48
2024-04-18T08:12:32.372Z,1015.50
2024-04-18T08:13:33.110Z,1015.49
2024-04-18T08:14:33.071Z,1015.53
2024-04-18T08:16:29.365Z,1015.49
2024-04-18T08:17:28.445Z,1015.50
2024-04-18T08:18:28.330Z,1015.60
2024-04-18T08:19:28.276Z,1015.57
2024-04-18T08:20:28.274Z,1015.61
2024-04-18T08:21:28.311Z,1015.61
2024-04-18T08:22:28.253Z,1015.62
2024-04-18T08:23:28.249Z,1015.62
2024-04-18T08:24:28.293Z,1015.65
2024-04-18T08:25:28.198Z,1015.69
2024-04-18T08:26:28.199Z,1015.74
2024-04-18T08:27:28.231Z,1015.75
2024-04-18T08:28:28.170Z,1015.76
2024-04-18T08:29:28.160Z,1015.77
2024-04-18T08:30:28.168Z,1015.79
2024-04-18T08:31:28.181Z,1015.84
2024-04-18T08:32:28.129Z,1015.87
2024-04-18T08:33:28.123Z,1015.80
2024-04-18T08:34:28.467Z,1015.81
2024-04-18T08:35:28.086Z,1015.85
2024-04-18T08:36:28.142Z,1015.86
2024-04-18T08:37:28.059Z,1015.88
2024-04-18T08:38:28.028Z,1015.84
2024-04-18T08:39:28.101Z,1015.88
2024-04-18T08:40:28.025Z,1015.84
2024-04-18T08:41:28.026Z,1015.80
2024-04-18T08:42:28.043Z,1015.79
2024-04-18T08:43:27.969Z,1015.79
2024-04-18T08:44:27.958Z,1015.76
2024-04-18T08:45:27.944Z,1015.79
2024-04-18T08:46:27.948Z,1015.78
2024-04-18T08:47:27.995Z,1015.78
2024-04-18T08:48:28.211Z,1015.81
2024-04-18T08:49:27.923Z,1015.82
2024-04-18T08:50:27.906Z,1015.80
2024-04-18T08:51:27.914Z,1015.82
2024-04-18T08:52:28.345Z,1015.76
2024-04-18T08:53:27.832Z,1015.78
2024-04-18T08:54:27.877Z,1015.73
2024-04-18T08:55:27.825Z,1015.74
2024-04-18T08:56:27.806Z,1015.69
2024-04-18T08:57:27.812Z,1015.78
2024-04-18T08:58:27.772Z,1015.79
2024-04-18T08:59:27.756Z,1015.82
2024-04-18T09:00:27.797Z,1015.77
2024-04-18T09:01:27.718Z,1015.78
2024-04-18T09:02:27.760Z,1015.82
2024-04-18T09:03:27.728Z,1015.79
2024-04-18T09:04:27.754Z,1015.84
2024-04-18T09:05:27.691Z,1015.89
2024-04-18T09:06:27.696Z,1015.90
2024-04-18T09:07:27.645Z,1015.88
2024-04-18T09:08:27.635Z,1015.90
2024-04-18T09:09:27.700Z,1015.92
2024-04-18T09:10:27.616Z,1015.96
2024-04-18T09:11:27.609Z,1015.94
2024-04-18T09:12:27.606Z,1015.94
2024-04-18T09:13:27.565Z,1015.92
2024-04-18T09:14:27.582Z,1015.91
2024-04-18T09:15:27.584Z,1015.96
2024-04-18T09:17:37.412Z,1015.94
2024-04-18T09:18:37.608Z,1015.95
2024-04-18T09:19:37.291Z,1015.96
2024-04-18T09:20:37.293Z,1015.94
2024-04-18T09:21:37.349Z,1015.94
2024-04-18T09:22:37.258Z,1015.95
2024-04-18T09:23:37.248Z,1015.96
2024-04-18T09:24:37.280Z,1015.94
2024-04-18T09:25:39.555Z,1015.96
2024-04-18T09:26:37.225Z,1015.91
2024-04-18T09:27:37.231Z,1015.93
2024-04-18T09:28:37.183Z,1015.98
2024-04-18T09:29:37.174Z,1015.97
2024-04-18T09:30:37.249Z,1015.97
2024-04-18T09:31:42.399Z,1016.01
2024-04-18T09:32:38.190Z,1015.97
2024-04-18T09:33:37.207Z,1015.99
2024-04-18T09:34:37.097Z,1016.02
2024-04-18T09:35:37.237Z,1016.03
2024-04-18T09:36:37.107Z,1016.04
2024-04-18T09:37:37.066Z,1016.03
2024-04-18T09:38:37.039Z,1016.04
2024-04-18T09:39:37.072Z,1016.05
2024-04-18T09:40:37.001Z,1016.15
2024-04-18T09:41:37.006Z,1016.14
2024-04-18T09:42:37.140Z,1016.11
2024-04-18T09:43:37.035Z,1016.07
2024-04-18T09:44:36.944Z,1016.07
2024-04-18T09:45:37.005Z,1016.06
2024-04-18T09:46:36.925Z,1016.08
2024-04-18T09:47:36.935Z,1016.11
2024-04-18T09:48:37.023Z,1016.08
2024-04-18T09:49:36.922Z,1016.03
2024-04-18T09:50:36.882Z,1016.11
2024-04-18T09:51:36.935Z,1016.07
2024-04-18T09:52:36.840Z,1016.05
2024-04-18T09:53:36.833Z,1016.03
2024-04-18T09:54:36.864Z,1016.06
2024-04-18T09:55:36.817Z,1016.07
2024-04-18T09:56:36.784Z,1016.12
2024-04-18T09:57:36.828Z,1016.13
2024-04-18T09:58:36.780Z,1016.08
2024-04-18T09:59:36.748Z,1016.12
2024-04-18T10:00:36.790Z,1016.08
2024-04-18T10:01:36.780Z,1016.09
2024-04-18T10:02:36.735Z,1016.14
2024-04-18T10:03:36.745Z,1016.18
2024-04-18T10:04:36.691Z,1016.15
2024-04-18T10:05:36.675Z,1016.09
2024-04-18T10:06:36.656Z,1016.11
2024-04-18T10:07:36.656Z,1016.13
2024-04-18T10:08:36.623Z,1016.07
2024-04-18T10:09:36.687Z,1016.13
2024-04-18T10:10:36.613Z,1016.09
2024-04-18T10:11:36.670Z,1016.11
2024-04-18T10:12:36.588Z,1016.15
2024-04-18T10:13:36.565Z,1016.10
2024-04-18T10:14:36.559Z,1016.06
2024-04-18T10:15:36.566Z,1016.07
2024-04-18T10:16:36.561Z,1016.09
2024-04-18T10:17:36.564Z,1016.02
2024-04-18T10:18:36.829Z,1016.10
2024-04-18T10:19:36.527Z,1016.08
2024-04-18T10:20:36.449Z,1016.12
2024-04-18T10:21:43.233Z,1016.07
2024-04-18T10:22:45.695Z,1016.09
2024-04-18T10:23:37.436Z,1016.06
2024-04-18T10:24:36.599Z,1016.05
2024-04-18T10:25:36.410Z,1016.00
2024-04-18T10:26:36.394Z,1016.03
2024-04-18T10:27:36.408Z,1016.05
2024-04-18T10:28:36.355Z,1016.03
2024-04-18T10:29:36.329Z,1016.00
2024-04-18T10:30:36.459Z,1016.08
2024-04-18T10:31:36.317Z,1016.03
2024-04-18T10:32:36.340Z,1015.92
2024-04-18T10:33:36.370Z,1015.86
2024-04-18T10:34:36.270Z,1015.80
2024-04-18T10:35:36.264Z,1015.67
2024-04-18T10:36:36.403Z,1015.69
2024-04-18T10:37:36.254Z,1015.68
2024-04-18T10:38:36.231Z,1015.65
2024-04-18T10:39:36.317Z,1015.68
2024-04-18T10:40:36.194Z,1015.62
2024-04-18T10:41:36.175Z,1015.70
2024-04-18T10:42:36.366Z,1015.69
2024-04-18T10:43:36.154Z,1015.67
2024-04-18T10:44:36.175Z,1015.49
2024-04-18T10:45:36.167Z,1015.62
2024-04-18T10:46:36.118Z,1015.64
2024-04-18T10:47:36.196Z,1015.77
2024-04-18T10:48:36.264Z,1015.80
2024-04-18T10:49:36.182Z,1015.82
2024-04-18T10:50:36.174Z,1015.75
2024-04-18T10:51:36.144Z,1015.67
2024-04-18T10:52:36.036Z,1015.71
2024-04-18T10:53:36.010Z,1015.78
2024-04-18T10:54:36.115Z,1015.77
2024-04-18T10:55:35.977Z,1015.94
2024-04-18T10:56:35.977Z,1015.89
2024-04-18T10:57:36.034Z,1015.87
2024-04-18T10:58:35.942Z,1015.95
2024-04-18T10:59:35.987Z,1015.99
2024-04-18T11:00:35.997Z,1015.93
2024-04-18T11:01:36.594Z,1015.87
2024-04-18T11:02:35.952Z,1015.83
2024-04-18T11:03:36.214Z,1015.82
2024-04-18T11:04:35.954Z,1015.79
2024-04-18T11:05:35.928Z,1015.69
2024-04-18T11:06:35.969Z,1015.73
2024-04-18T11:07:35.831Z,1015.90
2024-04-18T11:08:35.859Z,1015.78
2024-04-18T11:09:35.861Z,1015.88
2024-04-18T11:10:35.793Z,1015.89
2024-04-18T11:11:35.783Z,1015.89
2024-04-18T11:12:35.837Z,1015.86
2024-04-18T11:13:35.770Z,1015.83
2024-04-18T11:14:35.755Z,1015.88
2024-04-18T11:15:35.771Z,1016.00
2024-04-18T11:16:35.705Z,1015.83
2024-04-18T11:17:35.737Z,1015.77
2024-04-18T11:18:35.726Z,1015.74
2024-04-18T11:19:35.670Z,1015.70
2024-04-18T11:20:35.643Z,1015.74
2024-04-18T11:21:35.670Z,1015.72
2024-04-18T11:22:35.614Z,1015.66
2024-04-18T11:23:44.121Z,1015.68
2024-04-18T11:24:36.703Z,1015.64
2024-04-18T11:25:35.575Z,1015.66
2024-04-18T11:26:35.564Z,1015.62
2024-04-18T11:27:35.668Z,1015.60
2024-04-18T11:28:35.541Z,1015.62
2024-04-18T11:29:35.542Z,1015.60
2024-04-18T11:30:35.557Z,1015.62
2024-04-18T11:31:35.568Z,1015.59
2024-04-18T11:32:35.503Z,1015.47
2024-04-18T11:33:35.537Z,1015.57
2024-04-18T11:34:35.459Z,1015.81
2024-04-18T11:35:35.438Z,1015.58
2024-04-18T11:36:35.467Z,1015.61
2024-04-18T11:37:35.408Z,1015.59
2024-04-18T11:38:35.404Z,1015.67
2024-04-18T11:39:35.456Z,1015.66
2024-04-18T11:40:35.365Z,1015.77
2024-04-18T11:41:35.378Z,1015.63
2024-04-18T11:42:35.405Z,1015.72
2024-04-18T11:43:35.352Z,1015.59
2024-04-18T11:44:35.316Z,1015.61
2024-04-18T11:45:35.338Z,1015.66
2024-04-18T11:46:35.302Z,1015.65
2024-04-18T11:47:35.337Z,1015.61
2024-04-18T11:48:35.446Z,1015.66
2024-04-18T11:49:35.259Z,1015.65
2024-04-18T11:50:35.229Z,1015.64
2024-04-18T11:51:35.279Z,1015.60
2024-04-18T11:52:35.229Z,1015.63
2024-04-18T11:53:35.197Z,1015.68
2024-04-18T11:54:35.192Z,1015.66
2024-04-18T11:55:35.173Z,1015.58
2024-04-18T11:56:35.170Z,1015.50
2024-04-18T11:57:35.210Z,1015.40
2024-04-18T11:58:35.133Z,1015.48
2024-04-18T11:59:35.118Z,1015.51
2024-04-18T12:00:35.220Z,1015.51
2024-04-18T12:01:35.121Z,1015.47
2024-04-18T12:02:35.075Z,1015.62
2024-04-18T12:03:35.104Z,1015.66
2024-04-18T12:04:35.069Z,1015.62
2024-04-18T12:05:35.037Z,1015.69
2024-04-18T12:06:35.145Z,1015.72
2024-04-18T12:07:35.020Z,1015.71